Time;durP1;ratioP1;P1;durP2;ratioP2;P2;SDS_P1;SDS_P2;PMS_P1;PMS_P2;Temp;Humidity;BMP_temperature;BMP_pressure;BME280_temperature;BME280_humidity;BME280_pressure;Samples;Min_cycle;Max_cycle;Signal;HPM_P1;HPM_P2
2023/07/21 00:01:13;;;;;;;0.13;0.13;;;24.00;48.00;;;;;;4994084;28;20023;-72
2023/07/21 00:03:39;;;;;;;0.20;0.20;;;23.90;47.90;;;;;;4992999;28;20046;-73
2023/07/21 00:06:09;;;;;;;0.30;0.20;;;23.90;47.90;;;;;;4975943;28;20054;-73
2023/07/21 00:08:36;;;;;;;0.22;0.20;;;24.00;48.00;;;;;;4993381;28;20034;-73
2023/07/21 00:11:03;;;;;;;0.20;0.20;;;23.90;47.90;;;;;;4993504;28;20162;-73
2023/07/21 00:13:29;;;;;;;0.20;0.20;;;23.90;47.90;;;;;;4993363;28;20034;-72
2023/07/21 00:15:56;;;;;;;0.30;0.20;;;23.90;47.90;;;;;;4992966;28;20029;-72
2023/07/21 00:18:23;;;;;;;0.22;0.22;;;23.90;47.90;;;;;;4975483;28;20037;-72
2023/07/21 00:20:50;;;;;;;0.40;0.20;;;23.90;48.00;;;;;;4992934;28;20081;-72
2023/07/21 00:23:17;;;;;;;0.10;0.10;;;23.90;47.90;;;;;;4993000;28;20022;-72
2023/07/21 00:25:45;;;;;;;0.15;0.15;;;23.90;48.00;;;;;;4992865;28;20027;-72
2023/07/21 00:28:11;;;;;;;0.40;0.17;;;23.90;48.00;;;;;;4992306;28;20026;-71
2023/07/21 00:30:37;;;;;;;0.15;0.15;;;23.90;48.10;;;;;;4992966;28;20038;-71
2023/07/21 00:33:03;;;;;;;0.10;0.10;;;23.80;48.00;;;;;;4992687;28;20031;-71
2023/07/21 00:35:29;;;;;;;0.30;0.10;;;23.80;48.00;;;;;;4992628;28;20489;-71
2023/07/21 00:38:00;;;;;;;0.20;0.20;;;23.80;47.90;;;;;;4992565;28;20073;-70
2023/07/21 00:40:26;;;;;;;0.20;0.20;;;23.80;47.90;;;;;;4992735;28;20026;-71
2023/07/21 00:42:51;;;;;;;0.30;0.20;;;23.80;48.00;;;;;;4975245;28;20022;-71
2023/07/21 00:45:17;;;;;;;0.20;0.20;;;23.80;48.00;;;;;;4992563;28;20108;-71
2023/07/21 00:47:44;;;;;;;0.25;0.20;;;23.80;48.00;;;;;;4993002;28;20419;-71
2023/07/21 00:50:12;;;;;;;0.20;0.20;;;23.80;48.70;;;;;;4992370;28;20049;-71
2023/07/21 00:52:38;;;;;;;0.40;0.20;;;23.70;48.00;;;;;;4992400;28;20054;-71
2023/07/21 00:55:05;;;;;;;0.10;0.10;;;23.70;48.00;;;;;;4992369;28;20030;-71
2023/07/21 00:57:33;;;;;;;0.30;0.15;;;23.70;48.00;;;;;;4992361;28;20037;-71
2023/07/21 00:59:58;;;;;;;0.28;0.10;;;23.70;48.00;;;;;;4992423;28;20493;-72
2023/07/21 01:02:24;;;;;;;0.30;0.20;;;23.70;48.00;;;;;;4992062;28;20049;-73
2023/07/21 01:04:51;;;;;;;0.10;0.10;;;23.70;48.00;;;;;;4992326;28;20034;-73
2023/07/21 01:07:18;;;;;;;0.40;0.25;;;23.70;48.00;;;;;;4992386;28;20023;-72
2023/07/21 01:09:45;;;;;;;0.50;0.30;;;23.70;48.00;;;;;;4992117;28;20486;-73
2023/07/21 01:12:11;;;;;;;0.73;0.20;;;23.70;48.00;;;;;;4992297;28;20485;-73
2023/07/21 01:14:38;;;;;;;0.32;0.10;;;23.70;48.00;;;;;;4992077;28;20125;-72
2023/07/21 01:17:07;;;;;;;0.20;0.20;;;23.60;47.90;;;;;;4992649;28;20088;-72
2023/07/21 01:19:34;;;;;;;0.20;0.20;;;23.60;48.00;;;;;;4992059;28;20049;-71
2023/07/21 01:22:12;;;;;;;0.65;0.30;;;23.60;48.00;;;;;;4992169;28;20405;-71
2023/07/21 01:24:47;;;;;;;0.30;0.20;;;23.60;48.00;;;;;;4992119;28;20026;-71
2023/07/21 01:27:15;;;;;;;0.25;0.20;;;23.60;48.00;;;;;;4992122;28;20393;-74
2023/07/21 01:29:43;;;;;;;0.20;0.20;;;23.60;48.00;;;;;;4992027;28;20027;-73
2023/07/21 01:32:10;;;;;;;0.20;0.20;;;23.60;48.00;;;;;;4992237;28;20362;-72
2023/07/21 01:34:37;;;;;;;0.30;0.20;;;23.60;48.00;;;;;;4991916;28;20037;-72
2023/07/21 01:37:04;;;;;;;0.68;0.28;;;23.60;48.10;;;;;;4991971;28;20503;-72
2023/07/21 01:39:34;;;;;;;0.65;0.30;;;23.60;48.10;;;;;;4992151;28;20026;-72
2023/07/21 01:42:00;;;;;;;0.52;0.20;;;23.50;47.90;;;;;;4996198;28;20025;-73
2023/07/21 01:44:26;;;;;;;0.40;0.20;;;23.50;47.90;;;;;;4995833;28;20486;-73
2023/07/21 01:46:53;;;;;;;0.20;0.20;;;23.50;48.00;;;;;;4995959;28;20068;-73
2023/07/21 01:49:19;;;;;;;0.40;0.40;;;23.50;47.90;;;;;;4978121;28;20500;-73
2023/07/21 01:51:47;;;;;;;0.20;0.20;;;23.50;48.00;;;;;;4995776;28;20082;-73
2023/07/21 01:54:25;;;;;;;0.15;0.15;;;23.50;48.00;;;;;;4995592;28;20505;-73
2023/07/21 01:57:13;;;;;;;0.20;0.17;;;23.50;48.00;;;;;;4995685;28;20022;-72
2023/07/21 01:59:43;;;;;;;0.30;0.10;;;23.40;48.00;;;;;;4995494;28;20022;-72
2023/07/21 02:02:10;;;;;;;0.23;0.23;;;23.40;47.90;;;;;;4995365;28;20043;-73
2023/07/21 02:04:36;;;;;;;0.30;0.22;;;23.50;48.00;;;;;;4996022;28;20023;-71
2023/07/21 02:07:01;;;;;;;0.30;0.20;;;23.40;47.90;;;;;;4995462;28;20094;-71
2023/07/21 02:09:27;;;;;;;0.32;0.20;;;23.40;47.90;;;;;;4995457;28;20031;-70
2023/07/21 02:11:53;;;;;;;0.50;0.20;;;23.40;48.60;;;;;;4995622;28;20400;-71
2023/07/21 02:14:19;;;;;;;0.30;0.20;;;23.40;48.00;;;;;;4995214;28;20500;-71
2023/07/21 02:16:46;;;;;;;0.22;0.20;;;23.40;47.90;;;;;;4995627;28;20018;-71
2023/07/21 02:19:12;;;;;;;0.20;0.20;;;23.40;48.70;;;;;;4995126;28;20026;-71
2023/07/21 02:21:38;;;;;;;0.30;0.30;;;23.40;47.90;;;;;;4995491;28;20080;-71
2023/07/21 02:24:05;;;;;;;0.85;0.30;;;23.30;48.00;;;;;;4995377;28;20096;-71
2023/07/21 02:26:32;;;;;;;0.52;0.30;;;23.30;47.90;;;;;;4995039;28;20555;-70
2023/07/21 02:28:57;;;;;;;0.30;0.20;;;23.30;48.00;;;;;;4995119;28;20117;-71
2023/07/21 02:31:24;;;;;;;0.20;0.17;;;23.30;48.00;;;;;;4995511;28;20021;-73
2023/07/21 02:33:51;;;;;;;0.17;0.10;;;23.30;48.00;;;;;;4994852;28;20038;-72
2023/07/21 02:36:17;;;;;;;0.70;0.20;;;23.20;47.80;;;;;;4995176;28;20026;-73
2023/07/21 02:38:43;;;;;;;0.28;0.28;;;23.20;48.00;;;;;;4995059;28;20031;-73
2023/07/21 02:41:10;;;;;;;0.40;0.20;;;23.30;48.00;;;;;;4995056;28;20022;-72
2023/07/21 02:43:35;;;;;;;0.20;0.20;;;23.20;48.00;;;;;;4995039;28;20093;-72
2023/07/21 02:46:01;;;;;;;1.08;0.22;;;23.20;48.00;;;;;;4994720;28;20106;-72
2023/07/21 02:48:29;;;;;;;0.60;0.30;;;23.20;47.90;;;;;;4994696;28;20034;-72
2023/07/21 02:50:55;;;;;;;0.32;0.30;;;23.20;48.00;;;;;;4994049;28;20430;-71
2023/07/21 02:53:21;;;;;;;0.20;0.20;;;23.20;48.00;;;;;;4994579;28;20060;-72
2023/07/21 02:55:47;;;;;;;0.22;0.22;;;23.20;48.00;;;;;;4994574;28;20113;-73
2023/07/21 02:58:15;;;;;;;0.28;0.20;;;23.20;48.00;;;;;;4994532;28;20033;-73
2023/07/21 03:00:41;;;;;;;0.40;0.20;;;23.20;48.00;;;;;;4994947;28;20022;-73
2023/07/21 03:03:09;;;;;;;0.28;0.28;;;23.20;47.90;;;;;;4994108;28;20042;-73
2023/07/21 03:05:35;;;;;;;0.30;0.30;;;23.10;47.90;;;;;;4994484;28;20064;-73
2023/07/21 03:08:02;;;;;;;0.30;0.20;;;23.10;48.00;;;;;;4994400;28;20031;-73
2023/07/21 03:10:27;;;;;;;0.20;0.20;;;23.10;48.10;;;;;;4994374;28;20113;-72
2023/07/21 03:12:53;;;;;;;0.20;0.20;;;23.10;48.00;;;;;;4994344;28;20105;-72
2023/07/21 03:15:19;;;;;;;0.40;0.22;;;23.10;48.00;;;;;;4994114;28;20031;-73
2023/07/21 03:17:46;;;;;;;0.20;0.20;;;23.10;48.00;;;;;;4994215;28;20064;-73
2023/07/21 03:20:12;;;;;;;0.20;0.20;;;23.00;48.00;;;;;;4994135;28;20019;-73
2023/07/21 03:22:45;;;;;;;0.35;0.30;;;23.10;48.00;;;;;;4994070;28;20026;-72
2023/07/21 03:25:12;;;;;;;0.22;0.22;;;23.10;48.00;;;;;;4993963;28;20072;-74
2023/07/21 03:27:47;;;;;;;0.77;0.20;;;23.00;48.00;;;;;;4993869;28;20482;-73
2023/07/21 03:30:14;;;;;;;1.13;0.52;;;23.00;48.00;;;;;;4993910;28;20052;-71
2023/07/21 03:32:43;;;;;;;0.45;0.20;;;23.00;48.00;;;;;;4994082;28;20037;-70
2023/07/21 03:35:09;;;;;;;0.30;0.20;;;23.00;48.00;;;;;;4993979;28;20440;-70
2023/07/21 03:37:35;;;;;;;0.20;0.10;;;23.00;47.90;;;;;;4994004;28;20026;-71
2023/07/21 03:40:06;;;;;;;0.20;0.20;;;23.00;48.10;;;;;;4994065;28;20438;-72
2023/07/21 03:42:35;;;;;;;0.38;0.30;;;23.00;48.00;;;;;;4993974;28;20034;-71
2023/07/21 03:45:05;;;;;;;0.60;0.30;;;23.00;48.70;;;;;;4993617;28;20018;-71
2023/07/21 03:47:31;;;;;;;1.05;0.40;;;23.00;48.10;;;;;;4993564;28;20418;-71
2023/07/21 03:49:58;;;;;;;0.30;0.30;;;23.00;48.30;;;;;;4993484;28;20049;-72
2023/07/21 03:52:23;;;;;;;0.30;0.30;;;22.90;48.20;;;;;;4993495;28;20085;-71
2023/07/21 03:54:49;;;;;;;0.30;0.30;;;22.90;48.30;;;;;;4993335;28;20042;-71
2023/07/21 03:57:15;;;;;;;0.40;0.40;;;22.90;48.20;;;;;;4993860;28;20425;-72
2023/07/21 03:59:42;;;;;;;0.80;0.50;;;22.90;48.20;;;;;;4993197;28;20031;-72
2023/07/21 04:02:08;;;;;;;0.82;0.70;;;22.90;48.40;;;;;;4992577;28;20038;-73
2023/07/21 04:04:34;;;;;;;1.27;1.17;;;22.90;48.30;;;;;;4993097;28;20436;-73
2023/07/21 04:07:01;;;;;;;1.80;1.70;;;22.90;48.30;;;;;;4993318;28;20018;-72
2023/07/21 04:09:28;;;;;;;2.42;2.33;;;22.90;48.30;;;;;;4993478;28;20104;-73
2023/07/21 04:11:53;;;;;;;2.90;2.80;;;22.90;48.30;;;;;;4993126;28;20026;-72
2023/07/21 04:14:19;;;;;;;4.10;3.90;;;22.90;48.30;;;;;;4992969;28;20049;-72
2023/07/21 04:16:45;;;;;;;5.30;5.00;;;22.90;48.30;;;;;;4993004;28;20142;-71
2023/07/21 04:19:11;;;;;;;6.55;6.13;;;22.90;48.50;;;;;;4992993;28;20054;-72
2023/07/21 04:21:37;;;;;;;7.20;6.80;;;22.90;48.50;;;;;;4992950;28;20452;-72
2023/07/21 04:24:03;;;;;;;7.57;7.07;;;22.90;48.60;;;;;;4993010;28;20057;-72
2023/07/21 04:26:28;;;;;;;9.75;9.15;;;22.90;48.60;;;;;;4993578;28;20027;-72
2023/07/21 04:28:54;;;;;;;10.23;9.52;;;22.90;48.60;;;;;;4992869;28;20023;-72
2023/07/21 04:31:21;;;;;;;11.43;10.55;;;22.90;48.90;;;;;;4992833;28;20531;-72
2023/07/21 04:33:48;;;;;;;12.00;11.20;;;22.80;49.50;;;;;;4992623;28;20121;-72
2023/07/21 04:36:14;;;;;;;12.23;11.32;;;22.90;48.80;;;;;;4992683;28;20034;-72
2023/07/21 04:38:40;;;;;;;13.13;12.23;;;22.80;48.90;;;;;;4992594;28;20072;-72
2023/07/21 04:41:06;;;;;;;13.70;12.70;;;22.80;48.80;;;;;;4992611;28;20109;-72
2023/07/21 04:43:31;;;;;;;13.10;12.20;;;22.80;48.90;;;;;;4992574;28;20031;-73
2023/07/21 04:45:57;;;;;;;13.23;12.32;;;22.80;48.80;;;;;;4992523;28;20030;-72
2023/07/21 04:48:23;;;;;;;13.55;12.57;;;22.80;48.90;;;;;;4992759;28;20034;-73
2023/07/21 04:50:52;;;;;;;13.38;12.43;;;22.80;48.90;;;;;;4992412;28;20038;-72
2023/07/21 04:53:18;;;;;;;13.57;12.60;;;22.80;48.90;;;;;;4992826;28;20034;-72
2023/07/21 04:55:43;;;;;;;13.00;12.10;;;22.70;48.80;;;;;;4992563;28;20018;-71
2023/07/21 04:58:09;;;;;;;12.65;11.75;;;22.80;49.00;;;;;;4992705;28;20042;-71
2023/07/21 05:00:35;;;;;;;12.30;11.48;;;22.70;49.10;;;;;;4992408;28;20492;-71
2023/07/21 05:03:01;;;;;;;13.02;12.13;;;22.70;48.90;;;;;;4992028;28;20501;-71
2023/07/21 05:05:27;;;;;;;12.70;11.77;;;22.70;48.90;;;;;;4992353;28;20477;-73
2023/07/21 05:07:53;;;;;;;11.77;10.98;;;22.70;48.90;;;;;;4992545;28;20034;-73
2023/07/21 05:10:19;;;;;;;11.45;10.65;;;22.70;49.10;;;;;;4992309;28;20552;-74
2023/07/21 05:12:45;;;;;;;12.02;11.13;;;22.70;49.10;;;;;;4992277;28;20030;-73
2023/07/21 05:15:12;;;;;;;11.50;10.70;;;22.70;49.10;;;;;;4991893;28;20403;-73
2023/07/21 05:17:38;;;;;;;11.63;10.77;;;22.70;49.10;;;;;;4992150;28;20030;-72
2023/07/21 05:20:05;;;;;;;10.52;9.82;;;22.70;49.20;;;;;;4992053;28;20067;-72
2023/07/21 05:22:31;;;;;;;10.73;9.93;;;22.70;49.20;;;;;;4992801;28;20433;-70
2023/07/21 05:24:58;;;;;;;9.98;9.23;;;22.70;49.20;;;;;;4991872;28;20026;-70
2023/07/21 05:27:24;;;;;;;9.30;8.70;;;22.70;49.00;;;;;;4992208;28;20029;-71
2023/07/21 05:29:49;;;;;;;8.98;8.38;;;22.60;49.10;;;;;;4991997;28;20389;-72
2023/07/21 05:32:15;;;;;;;9.20;8.52;;;22.70;49.10;;;;;;4992065;28;20037;-72
2023/07/21 05:34:42;;;;;;;8.18;7.65;;;22.30;68.20;;;;;;4991889;28;20049;-72
2023/07/21 05:37:08;;;;;;;8.65;8.05;;;22.60;49.10;;;;;;4991965;28;20105;-72
2023/07/21 05:39:35;;;;;;;8.00;7.50;;;22.60;49.30;;;;;;4992013;28;20364;-72
2023/07/21 05:42:01;;;;;;;7.78;7.28;;;22.60;49.10;;;;;;4992165;28;20030;-72
2023/07/21 05:44:27;;;;;;;7.70;7.20;;;22.60;49.20;;;;;;4991847;28;20144;-72
2023/07/21 05:46:53;;;;;;;7.22;6.72;;;22.60;49.20;;;;;;4974368;28;20481;-72
2023/07/21 05:49:19;;;;;;;7.25;6.75;;;22.60;49.30;;;;;;4992080;28;20116;-72
2023/07/21 05:51:45;;;;;;;6.85;6.43;;;22.60;49.20;;;;;;4992542;28;20485;-71
2023/07/21 05:54:10;;;;;;;6.43;6.03;;;22.60;49.20;;;;;;4991731;28;20038;-71
2023/07/21 05:56:39;;;;;;;5.90;5.50;;;22.60;49.40;;;;;;4991846;28;20103;-71
2023/07/21 05:59:04;;;;;;;5.95;5.45;;;22.60;49.20;;;;;;4991695;28;20022;-70
2023/07/21 06:01:30;;;;;;;5.45;5.05;;;22.60;68.00;;;;;;4991696;28;20454;-70
2023/07/21 06:03:56;;;;;;;4.85;4.55;;;22.60;49.40;;;;;;4991523;28;20505;-71
2023/07/21 06:06:23;;;;;;;4.80;4.50;;;22.60;49.30;;;;;;4991958;28;20023;-72
2023/07/21 06:08:51;;;;;;;4.40;4.20;;;22.60;49.40;;;;;;4991864;28;20057;-70
2023/07/21 06:11:17;;;;;;;4.55;4.25;;;22.60;49.30;;;;;;4991782;28;20034;-71
2023/07/21 06:13:43;;;;;;;4.43;4.13;;;22.60;49.40;;;;;;4991350;28;20061;-71
2023/07/21 06:16:09;;;;;;;4.03;3.72;;;22.60;49.50;;;;;;4991825;28;20022;-70
2023/07/21 06:18:35;;;;;;;3.85;3.65;;;22.60;49.50;;;;;;4991592;28;20104;-70
2023/07/21 06:21:03;;;;;;;3.50;3.30;;;22.60;49.30;;;;;;4992199;28;20027;-70
2023/07/21 06:23:29;;;;;;;3.30;3.00;;;22.60;49.40;;;;;;4991561;28;20389;-70
2023/07/21 06:25:54;;;;;;;3.03;2.83;;;22.60;49.40;;;;;;4992146;28;20033;-70
2023/07/21 06:28:21;;;;;;;2.97;2.78;;;22.60;49.40;;;;;;4994974;28;20041;-70
2023/07/21 06:30:47;;;;;;;2.58;2.38;;;22.60;49.40;;;;;;4995012;28;20026;-72
2023/07/21 06:33:14;;;;;;;2.88;2.67;;;22.60;49.50;;;;;;4995127;28;20130;-74
2023/07/21 06:35:39;;;;;;;2.10;2.00;;;22.60;49.40;;;;;;4994942;28;20493;-73
2023/07/21 06:38:07;;;;;;;2.33;2.22;;;22.60;49.40;;;;;;4995040;28;20169;-72
2023/07/21 06:40:33;;;;;;;1.90;1.80;;;22.60;49.40;;;;;;4994826;28;20396;-72
2023/07/21 06:42:59;;;;;;;1.90;1.80;;;22.60;49.30;;;;;;4994799;28;20024;-71
2023/07/21 06:45:25;;;;;;;2.67;1.77;;;22.60;49.50;;;;;;4994590;28;20097;-73
2023/07/21 06:47:51;;;;;;;1.70;1.60;;;22.60;49.60;;;;;;4995134;28;20492;-73
2023/07/21 06:50:16;;;;;;;1.52;1.42;;;22.60;49.60;;;;;;4994473;28;20045;-72
2023/07/21 06:52:42;;;;;;;1.70;1.30;;;22.60;49.70;;;;;;4994589;28;20026;-73
2023/07/21 06:55:08;;;;;;;1.20;1.10;;;22.60;49.70;;;;;;4994471;28;20393;-72
2023/07/21 06:57:34;;;;;;;2.65;1.10;;;22.60;49.80;;;;;;4994753;28;20338;-72
2023/07/21 07:00:00;;;;;;;2.15;1.08;;;22.60;49.80;;;;;;4994480;28;20556;-74
2023/07/21 07:02:26;;;;;;;1.00;0.90;;;22.60;49.80;;;;;;4994235;28;20134;-73
2023/07/21 07:04:53;;;;;;;0.75;0.75;;;22.60;49.80;;;;;;4994350;28;20034;-74
2023/07/21 07:07:19;;;;;;;1.45;0.80;;;22.60;68.50;;;;;;4994277;28;20055;-73
2023/07/21 07:09:45;;;;;;;2.67;1.00;;;22.70;49.90;;;;;;4994309;28;20045;-73
2023/07/21 07:12:11;;;;;;;1.73;0.60;;;22.70;50.00;;;;;;4994254;28;20026;-73
2023/07/21 07:14:37;;;;;;;1.02;0.70;;;22.70;50.00;;;;;;4994300;28;20031;-73
2023/07/21 07:17:02;;;;;;;0.70;0.70;;;22.70;50.00;;;;;;4994196;28;20481;-71
2023/07/21 07:19:28;;;;;;;1.15;1.02;;;22.70;50.00;;;;;;4994010;28;20034;-72
2023/07/21 07:21:54;;;;;;;1.95;0.77;;;22.70;50.10;;;;;;4994072;28;20497;-72
2023/07/21 07:24:20;;;;;;;1.42;0.73;;;22.70;50.20;;;;;;4994148;28;20057;-72
2023/07/21 07:26:47;;;;;;;1.23;0.50;;;22.70;50.20;;;;;;4994078;28;20031;-72
2023/07/21 07:29:15;;;;;;;0.85;0.52;;;22.70;50.20;;;;;;4993737;28;20034;-72
2023/07/21 07:31:42;;;;;;;1.10;0.57;;;22.70;50.20;;;;;;4994076;28;20080;-72
2023/07/21 07:34:09;;;;;;;0.70;0.40;;;22.70;50.30;;;;;;4993911;28;20035;-71
2023/07/21 07:36:34;;;;;;;1.25;0.45;;;22.70;50.40;;;;;;4993559;28;20482;-71
2023/07/21 07:39:00;;;;;;;1.15;0.52;;;22.70;50.40;;;;;;4993806;28;20478;-71
2023/07/21 07:41:26;;;;;;;0.73;0.50;;;22.70;50.40;;;;;;4993478;28;20021;-71
2023/07/21 07:43:53;;;;;;;0.90;0.40;;;22.70;50.50;;;;;;4993693;28;20081;-71
2023/07/21 07:46:18;;;;;;;0.63;0.43;;;22.70;50.50;;;;;;4993526;28;20423;-72
2023/07/21 07:48:47;;;;;;;1.00;0.50;;;22.70;50.50;;;;;;4993465;28;20026;-72
2023/07/21 07:51:13;;;;;;;1.55;0.57;;;22.70;50.50;;;;;;4976083;28;20365;-71
2023/07/21 07:53:39;;;;;;;0.40;0.40;;;22.80;50.50;;;;;;4993136;28;20041;-72
2023/07/21 07:56:05;;;;;;;0.50;0.40;;;22.80;50.50;;;;;;4993242;28;20026;-71
2023/07/21 07:58:31;;;;;;;0.30;0.30;;;22.80;50.50;;;;;;4993115;28;20033;-72
2023/07/21 08:00:58;;;;;;;1.85;0.40;;;22.80;50.50;;;;;;4993288;28;20026;-72
2023/07/21 08:03:25;;;;;;;0.60;0.40;;;22.60;69.20;;;;;;4966863;28;20146;-72
2023/07/21 08:05:51;;;;;;;1.02;0.50;;;22.80;50.40;;;;;;4954365;29;20027;-72
2023/07/21 08:08:20;;;;;;;0.50;0.40;;;22.90;50.60;;;;;;4955004;29;20027;-72
2023/07/21 08:10:46;;;;;;;1.63;0.40;;;22.90;50.50;;;;;;4954629;29;20375;-73
2023/07/21 08:13:12;;;;;;;0.60;0.40;;;22.90;50.40;;;;;;4954696;29;20023;-70
2023/07/21 08:15:43;;;;;;;0.50;0.40;;;22.90;50.50;;;;;;4954516;29;20031;-70
2023/07/21 08:18:11;;;;;;;1.92;0.40;;;22.90;50.50;;;;;;4954327;29;20024;-69
2023/07/21 08:20:38;;;;;;;0.50;0.30;;;22.90;50.70;;;;;;4954277;29;20031;-68
2023/07/21 08:23:04;;;;;;;1.98;0.50;;;22.90;50.70;;;;;;4954211;29;20386;-69
2023/07/21 08:25:30;;;;;;;1.55;0.40;;;22.90;50.80;;;;;;4936761;29;20486;-70
2023/07/21 08:27:58;;;;;;;1.80;0.80;;;23.00;50.80;;;;;;4954399;29;20023;-70
2023/07/21 08:30:24;;;;;;;1.80;0.40;;;23.00;50.90;;;;;;4954098;29;20502;-70
2023/07/21 08:32:51;;;;;;;2.45;0.57;;;23.00;50.90;;;;;;4954164;29;20019;-72
2023/07/21 08:35:17;;;;;;;2.15;0.50;;;23.10;51.10;;;;;;4953901;29;20086;-72
2023/07/21 08:37:43;;;;;;;0.50;0.45;;;23.10;51.10;;;;;;4954260;29;20027;-72
2023/07/21 08:40:09;;;;;;;0.68;0.68;;;23.10;51.10;;;;;;4954258;29;20383;-73
2023/07/21 08:42:36;;;;;;;0.50;0.50;;;23.10;51.20;;;;;;4954151;29;20019;-74
2023/07/21 08:45:04;;;;;;;0.88;0.45;;;23.10;51.20;;;;;;4953887;29;20031;-74
2023/07/21 08:47:31;;;;;;;1.58;0.35;;;23.10;51.30;;;;;;4953771;29;20019;-73
2023/07/21 08:49:57;;;;;;;0.65;0.40;;;23.10;69.90;;;;;;4953457;28;20043;-71
2023/07/21 08:52:23;;;;;;;1.85;0.40;;;23.20;51.40;;;;;;4954365;29;20355;-72
2023/07/21 08:54:49;;;;;;;1.08;0.47;;;23.30;51.40;;;;;;4936298;29;20540;-70
2023/07/21 08:57:15;;;;;;;1.92;0.35;;;23.30;51.30;;;;;;4954225;29;20027;-74
2023/07/21 08:59:41;;;;;;;2.65;0.52;;;23.30;51.40;;;;;;4953608;29;20023;-71
2023/07/21 09:02:08;;;;;;;6.63;0.70;;;23.40;51.50;;;;;;4953387;28;20043;-70
2023/07/21 09:04:34;;;;;;;0.50;0.40;;;23.40;52.20;;;;;;4953496;29;20058;-71
2023/07/21 09:07:02;;;;;;;1.05;0.50;;;23.40;51.50;;;;;;4952158;29;20505;-71
2023/07/21 09:09:30;;;;;;;0.73;0.47;;;23.40;51.50;;;;;;4953506;29;20027;-71
2023/07/21 09:12:07;;;;;;;1.27;0.50;;;23.50;51.50;;;;;;4953709;29;20027;-70
2023/07/21 09:14:41;;;;;;;1.30;0.50;;;23.50;51.50;;;;;;4953612;29;20159;-71
2023/07/21 09:17:09;;;;;;;2.10;0.60;;;23.60;51.50;;;;;;4953305;29;20038;-72
2023/07/21 09:19:36;;;;;;;1.92;0.50;;;23.60;51.50;;;;;;4953529;29;20066;-71
2023/07/21 09:22:03;;;;;;;1.40;0.43;;;23.60;51.50;;;;;;4953064;29;20020;-71
2023/07/21 09:24:29;;;;;;;0.60;0.40;;;23.70;51.60;;;;;;4953497;29;20079;-71
2023/07/21 09:27:25;;;;;;;1.15;0.30;;;23.70;51.60;;;;;;4953337;29;20474;-74
2023/07/21 09:30:02;;;;;;;2.03;0.57;;;23.70;51.30;;;;;;4944890;28;20039;-73
2023/07/21 09:32:37;;;;;;;0.70;0.35;;;23.70;51.60;;;;;;4953624;29;20362;-73
2023/07/21 09:35:04;;;;;;;0.98;0.60;;;23.70;51.50;;;;;;4953127;29;20529;-74
2023/07/21 09:37:33;;;;;;;3.58;0.50;;;23.70;51.50;;;;;;4953368;29;20023;-74
2023/07/21 09:40:00;;;;;;;0.73;0.40;;;23.80;51.70;;;;;;4953228;29;20027;-72
2023/07/21 09:42:27;;;;;;;0.70;0.50;;;23.80;51.60;;;;;;4953073;29;20386;-72
2023/07/21 09:44:55;;;;;;;1.50;0.80;;;23.80;51.60;;;;;;4953574;29;20494;-70
2023/07/21 09:47:21;;;;;;;1.17;0.63;;;23.80;51.50;;;;;;4953223;29;20093;-70
2023/07/21 09:49:48;;;;;;;1.13;0.40;;;23.90;51.50;;;;;;4953060;29;20023;-70
2023/07/21 09:52:17;;;;;;;0.73;0.43;;;23.90;51.50;;;;;;4953009;29;20028;-70
2023/07/21 09:55:10;;;;;;;0.82;0.60;;;23.90;51.40;;;;;;4952852;29;20031;-73
2023/07/21 09:57:42;;;;;;;1.45;0.60;;;24.00;51.20;;;;;;4947737;29;20039;-73
2023/07/21 10:00:13;;;;;;;1.17;0.55;;;24.00;51.20;;;;;;4953160;28;20096;-73
2023/07/21 10:02:47;;;;;;;0.30;0.30;;;24.00;51.20;;;;;;4956064;28;20055;-73
2023/07/21 10:05:16;;;;;;;2.40;0.57;;;24.00;51.20;;;;;;4956722;29;20023;-73
2023/07/21 10:07:48;;;;;;;2.13;0.50;;;24.00;51.70;;;;;;4956615;29;20027;-79
2023/07/21 10:10:15;;;;;;;3.03;0.40;;;24.10;51.10;;;;;;4956590;29;20027;-73
2023/07/21 10:12:46;;;;;;;0.70;0.43;;;24.20;50.80;;;;;;4956700;29;20494;-69
2023/07/21 10:15:14;;;;;;;0.77;0.40;;;24.20;50.90;;;;;;4956827;29;20074;-72
2023/07/21 10:18:04;;;;;;;2.17;0.55;;;24.30;50.80;;;;;;4956798;29;20441;-72
2023/07/21 10:20:39;;;;;;;;;;;24.30;50.70;;;;;;4956864;29;20030;-73
2023/07/21 10:23:06;;;;;;;3.72;0.63;;;24.30;50.80;;;;;;4956582;29;19906;-72
2023/07/21 10:25:46;;;;;;;0.95;0.40;;;24.30;50.60;;;;;;4956218;29;20027;-70
2023/07/21 10:28:13;;;;;;;0.30;0.30;;;24.30;50.50;;;;;;4956635;29;20050;-72
2023/07/21 10:30:41;;;;;;;2.72;0.75;;;24.40;50.60;;;;;;4956601;29;20387;-71
2023/07/21 10:33:18;;;;;;;2.60;0.32;;;24.40;50.40;;;;;;4956512;29;20027;-71
2023/07/21 10:35:44;;;;;;;1.10;0.50;;;24.40;51.00;;;;;;4956253;29;20390;-69
2023/07/21 10:38:19;;;;;;;0.80;0.30;;;24.40;50.30;;;;;;4956024;29;20110;-72
2023/07/21 10:40:45;;;;;;;1.50;0.40;;;24.40;50.60;;;;;;4955948;29;20478;-70
2023/07/21 10:43:12;;;;;;;0.63;0.45;;;24.40;50.40;;;;;;4956108;29;20024;-71
2023/07/21 10:45:38;;;;;;;1.40;0.57;;;24.40;50.50;;;;;;4955949;29;20046;-69
2023/07/21 10:48:15;;;;;;;0.35;0.35;;;24.50;50.80;;;;;;4955909;29;20027;-70
2023/07/21 10:50:58;;;;;;;0.70;0.38;;;24.50;50.70;;;;;;4956033;29;20106;-73
2023/07/21 10:53:24;;;;;;;0.82;0.50;;;24.60;50.70;;;;;;4955826;29;20341;-73
2023/07/21 10:55:52;;;;;;;0.40;0.32;;;24.60;50.70;;;;;;4955728;29;20586;-72
2023/07/21 10:58:18;;;;;;;1.70;0.50;;;24.70;50.70;;;;;;4955447;29;20023;-72
2023/07/21 11:00:51;;;;;;;0.93;0.22;;;24.70;50.70;;;;;;4955382;29;20441;-72
2023/07/21 11:03:18;;;;;;;0.35;0.35;;;24.70;50.80;;;;;;4955138;28;20520;-73
2023/07/21 11:05:43;;;;;;;0.73;0.40;;;24.70;50.80;;;;;;4955311;28;20031;-72
2023/07/21 11:08:26;;;;;;;0.68;0.40;;;24.70;50.90;;;;;;4955592;29;20024;-70
2023/07/21 11:10:52;;;;;;;0.28;0.20;;;24.70;50.80;;;;;;4955561;29;20391;-70
2023/07/21 11:13:19;;;;;;;0.57;0.40;;;24.70;50.90;;;;;;4954583;28;20549;-70
2023/07/21 11:15:53;;;;;;;0.82;0.70;;;24.70;50.80;;;;;;4955059;29;20027;-70
2023/07/21 11:18:19;;;;;;;0.35;0.30;;;24.70;50.80;;;;;;4955019;29;20027;-70
2023/07/21 11:20:52;;;;;;;0.43;0.30;;;24.70;69.20;;;;;;4955134;29;20122;-71
2023/07/21 11:23:20;;;;;;;0.30;0.30;;;24.70;50.80;;;;;;4955085;29;20105;-71
2023/07/21 11:26:11;;;;;;;1.35;0.52;;;24.60;50.80;;;;;;4955081;29;20475;-71
2023/07/21 11:28:40;;;;;;;;;;;24.70;51.50;;;;;;4955495;29;20046;-71
2023/07/21 11:31:13;;;;;;;0.40;0.40;;;24.70;50.70;;;;;;4953589;29;19906;-71
2023/07/21 11:33:43;;;;;;;0.88;0.40;;;24.70;50.90;;;;;;4954775;29;20037;-71
2023/07/21 11:36:22;;;;;;;0.73;0.38;;;24.70;51.00;;;;;;4954953;29;20390;-71
2023/07/21 11:39:07;;;;;;;0.63;0.40;;;24.70;51.10;;;;;;4954698;29;20027;-69
2023/07/21 11:41:39;;;;;;;1.38;0.70;;;24.70;50.90;;;;;;4954496;29;20285;-69
2023/07/21 11:44:09;;;;;;;0.95;0.45;;;24.70;50.80;;;;;;4954340;29;20019;-68
2023/07/21 11:46:37;;;;;;;1.13;0.50;;;24.70;50.90;;;;;;4954623;29;20494;-69
2023/07/21 11:49:10;;;;;;;0.35;0.35;;;24.70;50.90;;;;;;4937423;29;20058;-70
2023/07/21 11:51:46;;;;;;;1.13;0.90;;;24.70;50.90;;;;;;4954645;29;20155;-69
2023/07/21 11:54:22;;;;;;;0.70;0.45;;;24.70;50.90;;;;;;4954401;29;20031;-69
2023/07/21 11:56:49;;;;;;;3.97;0.90;;;24.70;50.90;;;;;;4954560;29;20031;-70
2023/07/21 11:59:16;;;;;;;1.88;0.77;;;24.70;51.00;;;;;;4954595;29;20364;-70
2023/07/21 12:01:43;;;;;;;0.50;0.50;;;24.70;51.00;;;;;;4954102;28;20024;-69
2023/07/21 12:04:10;;;;;;;0.60;0.50;;;24.70;51.00;;;;;;4954289;28;20050;-71
2023/07/21 12:06:36;;;;;;;0.93;0.60;;;24.70;50.90;;;;;;4954474;29;20035;-73
2023/07/21 12:09:05;;;;;;;1.00;0.70;;;24.70;50.90;;;;;;4954182;29;20038;-72
2023/07/21 12:11:31;;;;;;;0.65;0.65;;;24.80;51.00;;;;;;4954136;29;20019;-71
2023/07/21 12:13:58;;;;;;;0.57;0.45;;;24.80;50.90;;;;;;4954363;29;20401;-73
2023/07/21 12:16:24;;;;;;;1.38;0.77;;;24.80;50.80;;;;;;4954143;29;20670;-71
2023/07/21 12:18:50;;;;;;;0.50;0.50;;;24.90;50.70;;;;;;4954326;29;20023;-72
2023/07/21 12:21:17;;;;;;;0.70;0.70;;;25.00;50.50;;;;;;4953962;29;20534;-72
2023/07/21 12:23:44;;;;;;;0.50;0.50;;;25.10;50.10;;;;;;4953337;28;20038;-72
2023/07/21 12:26:10;;;;;;;0.50;0.50;;;25.20;49.80;;;;;;4954401;29;20055;-72
2023/07/21 12:28:37;;;;;;;0.65;0.50;;;25.40;49.40;;;;;;4954218;29;20027;-72
2023/07/21 12:31:04;;;;;;;0.80;0.50;;;25.50;49.20;;;;;;4953993;29;20486;-72
2023/07/21 12:33:30;;;;;;;0.50;0.50;;;25.50;49.10;;;;;;4953778;29;20031;-72
2023/07/21 12:35:56;;;;;;;0.60;0.45;;;25.50;49.20;;;;;;4954097;29;20398;-73
2023/07/21 12:38:22;;;;;;;1.23;0.50;;;25.50;49.20;;;;;;4954152;29;20378;-72
2023/07/21 12:40:47;;;;;;;1.17;0.43;;;25.50;49.10;;;;;;4953892;29;20031;-74
2023/07/21 12:43:13;;;;;;;0.47;0.40;;;25.50;49.30;;;;;;4953879;29;20063;-73
2023/07/21 12:45:42;;;;;;;0.38;0.38;;;25.50;49.40;;;;;;4952211;29;20152;-71
2023/07/21 12:48:09;;;;;;;0.40;0.40;;;25.40;49.50;;;;;;4954036;29;20031;-72